sensor_id;sensor_type;location;lat;lon;timestamp;P1;durP1;ratioP1;P2;durP2;ratioP2
21681;SDS011;11002;48.256;10.084;2022-12-18T00:00:00;8.80;;;7.25;;
21681;SDS011;11002;48.256;10.084;2022-12-18T00:02:27;9.10;;;6.85;;
21681;SDS011;11002;48.256;10.084;2022-12-18T00:04:55;9.48;;;7.28;;
21681;SDS011;11002;48.256;10.084;2022-12-18T00:07:22;9.32;;;7.03;;
21681;SDS011;11002;48.256;10.084;2022-12-18T00:09:49;9.25;;;6.95;;
21681;SDS011;11002;48.256;10.084;2022-12-18T00:12:17;9.07;;;6.38;;
21681;SDS011;11002;48.256;10.084;2022-12-18T00:14:44;8.35;;;6.47;;
21681;SDS011;11002;48.256;10.084;2022-12-18T00:17:13;8.73;;;6.93;;
21681;SDS011;11002;48.256;10.084;2022-12-18T00:19:42;7.97;;;6.85;;
21681;SDS011;11002;48.256;10.084;2022-12-18T00:22:10;8.70;;;7.22;;
21681;SDS011;11002;48.256;10.084;2022-12-18T00:24:37;8.73;;;7.18;;
21681;SDS011;11002;48.256;10.084;2022-12-18T00:27:05;9.15;;;7.18;;
21681;SDS011;11002;48.256;10.084;2022-12-18T00:29:32;9.52;;;7.28;;
21681;SDS011;11002;48.256;10.084;2022-12-18T00:31:59;9.55;;;6.93;;
21681;SDS011;11002;48.256;10.084;2022-12-18T00:34:28;9.18;;;6.93;;
21681;SDS011;11002;48.256;10.084;2022-12-18T00:36:55;8.77;;;6.60;;
21681;SDS011;11002;48.256;10.084;2022-12-18T00:39:23;7.88;;;6.20;;
21681;SDS011;11002;48.256;10.084;2022-12-18T00:41:50;10.07;;;7.32;;
21681;SDS011;11002;48.256;10.084;2022-12-18T00:44:35;8.48;;;6.40;;
21681;SDS011;11002;48.256;10.084;2022-12-18T00:47:02;11.23;;;7.63;;
21681;SDS011;11002;48.256;10.084;2022-12-18T00:49:31;9.32;;;6.95;;
21681;SDS011;11002;48.256;10.084;2022-12-18T00:51:58;9.95;;;7.78;;
21681;SDS011;11002;48.256;10.084;2022-12-18T00:54:26;9.95;;;7.38;;
21681;SDS011;11002;48.256;10.084;2022-12-18T00:56:53;8.98;;;7.20;;
21681;SDS011;11002;48.256;10.084;2022-12-18T00:59:21;8.55;;;6.78;;
21681;SDS011;11002;48.256;10.084;2022-12-18T01:01:49;9.15;;;7.30;;
21681;SDS011;11002;48.256;10.084;2022-12-18T01:04:19;9.30;;;7.50;;
21681;SDS011;11002;48.256;10.084;2022-12-18T01:06:48;9.02;;;7.00;;
21681;SDS011;11002;48.256;10.084;2022-12-18T01:09:15;9.82;;;7.40;;
21681;SDS011;11002;48.256;10.084;2022-12-18T01:11:42;10.90;;;8.20;;
21681;SDS011;11002;48.256;10.084;2022-12-18T01:14:10;11.05;;;7.90;;
21681;SDS011;11002;48.256;10.084;2022-12-18T01:16:37;11.32;;;6.95;;
21681;SDS011;11002;48.256;10.084;2022-12-18T01:19:04;11.48;;;8.02;;
21681;SDS011;11002;48.256;10.084;2022-12-18T01:21:32;9.27;;;7.22;;
21681;SDS011;11002;48.256;10.084;2022-12-18T01:24:04;10.80;;;7.60;;
21681;SDS011;11002;48.256;10.084;2022-12-18T01:26:32;9.75;;;7.40;;
21681;SDS011;11002;48.256;10.084;2022-12-18T01:29:00;9.98;;;7.57;;
21681;SDS011;11002;48.256;10.084;2022-12-18T01:31:28;9.60;;;7.18;;
21681;SDS011;11002;48.256;10.084;2022-12-18T01:33:57;11.15;;;7.00;;
21681;SDS011;11002;48.256;10.084;2022-12-18T01:36:27;8.60;;;6.80;;
21681;SDS011;11002;48.256;10.084;2022-12-18T01:38:56;10.70;;;8.05;;
21681;SDS011;11002;48.256;10.084;2022-12-18T01:41:27;11.18;;;7.78;;
21681;SDS011;11002;48.256;10.084;2022-12-18T01:47:21;9.75;;;7.63;;
21681;SDS011;11002;48.256;10.084;2022-12-18T01:49:52;9.45;;;6.75;;
21681;SDS011;11002;48.256;10.084;2022-12-18T01:52:21;10.18;;;7.75;;
21681;SDS011;11002;48.256;10.084;2022-12-18T01:54:51;9.32;;;7.40;;
21681;SDS011;11002;48.256;10.084;2022-12-18T01:57:20;11.10;;;7.65;;
21681;SDS011;11002;48.256;10.084;2022-12-18T01:59:50;11.13;;;7.45;;
21681;SDS011;11002;48.256;10.084;2022-12-18T02:02:20;9.65;;;7.05;;
21681;SDS011;11002;48.256;10.084;2022-12-18T02:04:48;10.43;;;8.10;;
21681;SDS011;11002;48.256;10.084;2022-12-18T02:07:17;10.80;;;7.72;;
21681;SDS011;11002;48.256;10.084;2022-12-18T02:09:53;10.75;;;7.65;;
21681;SDS011;11002;48.256;10.084;2022-12-18T02:12:27;10.23;;;6.85;;
21681;SDS011;11002;48.256;10.084;2022-12-18T02:15:03;11.95;;;7.38;;
21681;SDS011;11002;48.256;10.084;2022-12-18T02:17:39;8.70;;;7.20;;
21681;SDS011;11002;48.256;10.084;2022-12-18T02:20:13;10.48;;;7.38;;
21681;SDS011;11002;48.256;10.084;2022-12-18T02:22:48;11.60;;;7.93;;
21681;SDS011;11002;48.256;10.084;2022-12-18T02:25:29;9.18;;;7.05;;
21681;SDS011;11002;48.256;10.084;2022-12-18T02:28:09;10.27;;;7.63;;
21681;SDS011;11002;48.256;10.084;2022-12-18T02:30:40;9.93;;;7.25;;
21681;SDS011;11002;48.256;10.084;2022-12-18T02:33:11;9.55;;;7.93;;
21681;SDS011;11002;48.256;10.084;2022-12-18T02:35:42;11.15;;;7.55;;
21681;SDS011;11002;48.256;10.084;2022-12-18T02:38:12;11.70;;;7.32;;
21681;SDS011;11002;48.256;10.084;2022-12-18T02:40:43;10.00;;;8.00;;
21681;SDS011;11002;48.256;10.084;2022-12-18T02:43:19;10.48;;;7.45;;
21681;SDS011;11002;48.256;10.084;2022-12-18T02:45:48;10.38;;;7.57;;
21681;SDS011;11002;48.256;10.084;2022-12-18T02:48:18;11.15;;;7.70;;
21681;SDS011;11002;48.256;10.084;2022-12-18T02:50:51;9.63;;;7.20;;
21681;SDS011;11002;48.256;10.084;2022-12-18T02:53:27;11.73;;;7.40;;
21681;SDS011;11002;48.256;10.084;2022-12-18T02:56:02;9.90;;;7.30;;
21681;SDS011;11002;48.256;10.084;2022-12-18T02:58:36;11.77;;;7.40;;
21681;SDS011;11002;48.256;10.084;2022-12-18T03:01:21;11.63;;;8.02;;
21681;SDS011;11002;48.256;10.084;2022-12-18T03:03:55;8.95;;;7.03;;
21681;SDS011;11002;48.256;10.084;2022-12-18T03:06:26;12.25;;;7.60;;
21681;SDS011;11002;48.256;10.084;2022-12-18T03:08:58;10.77;;;7.85;;
21681;SDS011;11002;48.256;10.084;2022-12-18T03:11:30;10.30;;;7.60;;
21681;SDS011;11002;48.256;10.084;2022-12-18T03:14:19;10.68;;;7.68;;
21681;SDS011;11002;48.256;10.084;2022-12-18T03:16:49;9.07;;;7.43;;
21681;SDS011;11002;48.256;10.084;2022-12-18T03:19:21;9.65;;;6.88;;
21681;SDS011;11002;48.256;10.084;2022-12-18T03:21:53;9.93;;;7.55;;
21681;SDS011;11002;48.256;10.084;2022-12-18T03:24:24;10.00;;;6.93;;
21681;SDS011;11002;48.256;10.084;2022-12-18T03:26:57;9.20;;;6.63;;
21681;SDS011;11002;48.256;10.084;2022-12-18T03:29:32;8.82;;;6.95;;
21681;SDS011;11002;48.256;10.084;2022-12-18T03:32:04;10.05;;;6.85;;
21681;SDS011;11002;48.256;10.084;2022-12-18T03:34:37;9.40;;;7.00;;
21681;SDS011;11002;48.256;10.084;2022-12-18T03:37:08;10.52;;;7.47;;
21681;SDS011;11002;48.256;10.084;2022-12-18T03:39:36;10.90;;;7.13;;
21681;SDS011;11002;48.256;10.084;2022-12-18T03:42:05;8.40;;;6.55;;
21681;SDS011;11002;48.256;10.084;2022-12-18T03:44:44;9.45;;;7.25;;
21681;SDS011;11002;48.256;10.084;2022-12-18T03:47:19;9.75;;;6.75;;
21681;SDS011;11002;48.256;10.084;2022-12-18T03:49:55;10.25;;;7.00;;
21681;SDS011;11002;48.256;10.084;2022-12-18T03:52:30;9.13;;;6.75;;
21681;SDS011;11002;48.256;10.084;2022-12-18T03:55:04;8.65;;;6.35;;
21681;SDS011;11002;48.256;10.084;2022-12-18T03:57:33;7.82;;;6.35;;
21681;SDS011;11002;48.256;10.084;2022-12-18T04:00:06;9.20;;;6.55;;
21681;SDS011;11002;48.256;10.084;2022-12-18T04:02:45;8.70;;;6.47;;
21681;SDS011;11002;48.256;10.084;2022-12-18T04:05:21;8.98;;;6.63;;
21681;SDS011;11002;48.256;10.084;2022-12-18T04:07:52;8.30;;;6.43;;
21681;SDS011;11002;48.256;10.084;2022-12-18T04:10:21;8.63;;;6.15;;
21681;SDS011;11002;48.256;10.084;2022-12-18T04:12:49;7.40;;;5.93;;
21681;SDS011;11002;48.256;10.084;2022-12-18T04:15:19;8.38;;;6.03;;
21681;SDS011;11002;48.256;10.084;2022-12-18T04:17:47;8.02;;;5.80;;
21681;SDS011;11002;48.256;10.084;2022-12-18T04:20:19;9.20;;;6.28;;
21681;SDS011;11002;48.256;10.084;2022-12-18T04:22:47;7.78;;;5.85;;
21681;SDS011;11002;48.256;10.084;2022-12-18T04:25:14;8.05;;;6.00;;
21681;SDS011;11002;48.256;10.084;2022-12-18T04:27:53;7.57;;;5.78;;
21681;SDS011;11002;48.256;10.084;2022-12-18T04:30:23;7.20;;;5.75;;
21681;SDS011;11002;48.256;10.084;2022-12-18T04:32:51;9.48;;;6.15;;
21681;SDS011;11002;48.256;10.084;2022-12-18T04:35:19;6.30;;;5.63;;
21681;SDS011;11002;48.256;10.084;2022-12-18T04:37:47;6.35;;;5.53;;
21681;SDS011;11002;48.256;10.084;2022-12-18T04:40:14;7.78;;;6.00;;
21681;SDS011;11002;48.256;10.084;2022-12-18T04:42:45;6.97;;;5.72;;
21681;SDS011;11002;48.256;10.084;2022-12-18T04:45:12;6.30;;;5.50;;
21681;SDS011;11002;48.256;10.084;2022-12-18T04:47:41;8.25;;;5.82;;
21681;SDS011;11002;48.256;10.084;2022-12-18T04:50:09;6.55;;;5.28;;
21681;SDS011;11002;48.256;10.084;2022-12-18T04:52:36;11.02;;;5.70;;
21681;SDS011;11002;48.256;10.084;2022-12-18T04:55:04;6.97;;;5.38;;
21681;SDS011;11002;48.256;10.084;2022-12-18T04:57:32;6.45;;;5.22;;
21681;SDS011;11002;48.256;10.084;2022-12-18T04:59:59;7.72;;;5.85;;
21681;SDS011;11002;48.256;10.084;2022-12-18T05:02:26;8.30;;;5.80;;
21681;SDS011;11002;48.256;10.084;2022-12-18T05:04:55;6.03;;;4.80;;
21681;SDS011;11002;48.256;10.084;2022-12-18T05:07:22;5.82;;;5.18;;
21681;SDS011;11002;48.256;10.084;2022-12-18T05:09:50;7.03;;;5.30;;
21681;SDS011;11002;48.256;10.084;2022-12-18T05:12:17;6.07;;;5.30;;
21681;SDS011;11002;48.256;10.084;2022-12-18T05:14:45;5.85;;;5.25;;
21681;SDS011;11002;48.256;10.084;2022-12-18T05:17:12;6.97;;;5.03;;
21681;SDS011;11002;48.256;10.084;2022-12-18T05:19:39;6.40;;;5.25;;
21681;SDS011;11002;48.256;10.084;2022-12-18T05:22:08;6.80;;;5.57;;
21681;SDS011;11002;48.256;10.084;2022-12-18T05:24:35;5.85;;;5.05;;
21681;SDS011;11002;48.256;10.084;2022-12-18T05:27:03;6.38;;;5.30;;
21681;SDS011;11002;48.256;10.084;2022-12-18T05:29:30;6.50;;;5.20;;
21681;SDS011;11002;48.256;10.084;2022-12-18T05:31:57;6.38;;;5.30;;
21681;SDS011;11002;48.256;10.084;2022-12-18T05:34:25;6.63;;;5.35;;
21681;SDS011;11002;48.256;10.084;2022-12-18T05:36:52;5.53;;;4.65;;
21681;SDS011;11002;48.256;10.084;2022-12-18T05:39:21;6.45;;;5.18;;
21681;SDS011;11002;48.256;10.084;2022-12-18T05:41:48;5.68;;;4.60;;
21681;SDS011;11002;48.256;10.084;2022-12-18T05:44:15;6.05;;;4.90;;
21681;SDS011;11002;48.256;10.084;2022-12-18T05:46:43;5.75;;;4.65;;
21681;SDS011;11002;48.256;10.084;2022-12-18T05:49:10;6.35;;;5.18;;
21681;SDS011;11002;48.256;10.084;2022-12-18T05:51:37;5.32;;;4.78;;
21681;SDS011;11002;48.256;10.084;2022-12-18T05:54:05;5.63;;;4.85;;
21681;SDS011;11002;48.256;10.084;2022-12-18T05:56:33;5.35;;;4.70;;
21681;SDS011;11002;48.256;10.084;2022-12-18T05:59:01;4.88;;;4.35;;
21681;SDS011;11002;48.256;10.084;2022-12-18T06:01:28;7.43;;;5.45;;
21681;SDS011;11002;48.256;10.084;2022-12-18T06:03:55;5.47;;;4.53;;
21681;SDS011;11002;48.256;10.084;2022-12-18T06:06:23;5.40;;;4.60;;
21681;SDS011;11002;48.256;10.084;2022-12-18T06:08:52;4.95;;;4.45;;
21681;SDS011;11002;48.256;10.084;2022-12-18T06:11:21;5.28;;;4.47;;
21681;SDS011;11002;48.256;10.084;2022-12-18T06:13:51;5.65;;;4.78;;
21681;SDS011;11002;48.256;10.084;2022-12-18T06:16:19;5.00;;;4.32;;
21681;SDS011;11002;48.256;10.084;2022-12-18T06:18:46;5.70;;;4.78;;
21681;SDS011;11002;48.256;10.084;2022-12-18T06:21:13;5.05;;;4.38;;
21681;SDS011;11002;48.256;10.084;2022-12-18T06:23:41;5.05;;;4.45;;
21681;SDS011;11002;48.256;10.084;2022-12-18T06:26:09;7.30;;;4.82;;
21681;SDS011;11002;48.256;10.084;2022-12-18T06:28:38;6.13;;;5.10;;
21681;SDS011;11002;48.256;10.084;2022-12-18T06:31:07;5.88;;;4.88;;
21681;SDS011;11002;48.256;10.084;2022-12-18T06:33:34;5.10;;;4.47;;
21681;SDS011;11002;48.256;10.084;2022-12-18T06:36:03;4.75;;;4.10;;
21681;SDS011;11002;48.256;10.084;2022-12-18T06:38:32;4.78;;;4.20;;
21681;SDS011;11002;48.256;10.084;2022-12-18T06:41:02;5.30;;;4.50;;
21681;SDS011;11002;48.256;10.084;2022-12-18T06:43:33;5.47;;;4.47;;
21681;SDS011;11002;48.256;10.084;2022-12-18T06:46:00;5.63;;;4.47;;
21681;SDS011;11002;48.256;10.084;2022-12-18T06:48:30;4.63;;;3.92;;
21681;SDS011;11002;48.256;10.084;2022-12-18T06:50:57;5.53;;;4.28;;
21681;SDS011;11002;48.256;10.084;2022-12-18T06:53:25;4.50;;;4.03;;
21681;SDS011;11002;48.256;10.084;2022-12-18T06:55:53;4.22;;;3.83;;
21681;SDS011;11002;48.256;10.084;2022-12-18T06:58:25;4.78;;;4.28;;
21681;SDS011;11002;48.256;10.084;2022-12-18T07:00:58;5.10;;;4.45;;
21681;SDS011;11002;48.256;10.084;2022-12-18T07:03:27;5.05;;;4.55;;
21681;SDS011;11002;48.256;10.084;2022-12-18T07:05:55;5.68;;;4.30;;
21681;SDS011;11002;48.256;10.084;2022-12-18T07:08:23;4.82;;;3.97;;
21681;SDS011;11002;48.256;10.084;2022-12-18T07:10:50;4.45;;;3.90;;
21681;SDS011;11002;48.256;10.084;2022-12-18T07:13:19;4.50;;;4.10;;
21681;SDS011;11002;48.256;10.084;2022-12-18T07:15:46;4.63;;;4.07;;
21681;SDS011;11002;48.256;10.084;2022-12-18T07:18:13;4.35;;;3.95;;
21681;SDS011;11002;48.256;10.084;2022-12-18T07:20:41;4.80;;;4.22;;
21681;SDS011;11002;48.256;10.084;2022-12-18T07:23:10;4.80;;;4.30;;
21681;SDS011;11002;48.256;10.084;2022-12-18T07:25:38;5.00;;;4.22;;
21681;SDS011;11002;48.256;10.084;2022-12-18T07:28:05;4.78;;;4.28;;
21681;SDS011;11002;48.256;10.084;2022-12-18T07:30:33;4.43;;;3.88;;
21681;SDS011;11002;48.256;10.084;2022-12-18T07:33:03;4.22;;;3.80;;
21681;SDS011;11002;48.256;10.084;2022-12-18T07:35:30;4.55;;;4.03;;
21681;SDS011;11002;48.256;10.084;2022-12-18T07:37:59;3.88;;;3.58;;
21681;SDS011;11002;48.256;10.084;2022-12-18T07:40:29;4.57;;;4.00;;
21681;SDS011;11002;48.256;10.084;2022-12-18T07:42:56;4.13;;;3.45;;
21681;SDS011;11002;48.256;10.084;2022-12-18T07:45:24;4.43;;;3.70;;
21681;SDS011;11002;48.256;10.084;2022-12-18T07:47:52;4.15;;;3.75;;
21681;SDS011;11002;48.256;10.084;2022-12-18T07:50:19;3.95;;;3.55;;
21681;SDS011;11002;48.256;10.084;2022-12-18T07:52:47;4.65;;;3.85;;
21681;SDS011;11002;48.256;10.084;2022-12-18T07:55:14;4.60;;;3.67;;
21681;SDS011;11002;48.256;10.084;2022-12-18T07:57:43;3.95;;;3.55;;
21681;SDS011;11002;48.256;10.084;2022-12-18T08:00:11;4.13;;;3.58;;
21681;SDS011;11002;48.256;10.084;2022-12-18T08:02:39;3.97;;;3.40;;
21681;SDS011;11002;48.256;10.084;2022-12-18T08:05:10;5.28;;;4.10;;
21681;SDS011;11002;48.256;10.084;2022-12-18T08:07:39;3.70;;;3.40;;
21681;SDS011;11002;48.256;10.084;2022-12-18T08:10:07;4.32;;;3.72;;
21681;SDS011;11002;48.256;10.084;2022-12-18T08:12:35;4.22;;;3.83;;
21681;SDS011;11002;48.256;10.084;2022-12-18T08:15:04;3.60;;;3.25;;
21681;SDS011;11002;48.256;10.084;2022-12-18T08:17:32;3.97;;;3.58;;
21681;SDS011;11002;48.256;10.084;2022-12-18T08:19:59;4.05;;;3.65;;
21681;SDS011;11002;48.256;10.084;2022-12-18T08:22:27;4.85;;;3.88;;
21681;SDS011;11002;48.256;10.084;2022-12-18T08:24:54;4.13;;;3.72;;
21681;SDS011;11002;48.256;10.084;2022-12-18T08:27:22;3.67;;;3.33;;
21681;SDS011;11002;48.256;10.084;2022-12-18T08:29:49;4.00;;;3.60;;
21681;SDS011;11002;48.256;10.084;2022-12-18T08:32:18;4.10;;;3.70;;
21681;SDS011;11002;48.256;10.084;2022-12-18T08:34:45;4.20;;;3.53;;
21681;SDS011;11002;48.256;10.084;2022-12-18T08:37:13;3.92;;;3.58;;
21681;SDS011;11002;48.256;10.084;2022-12-18T08:39:40;4.57;;;3.70;;
21681;SDS011;11002;48.256;10.084;2022-12-18T08:42:07;4.63;;;3.40;;
21681;SDS011;11002;48.256;10.084;2022-12-18T08:44:52;3.47;;;3.13;;
21681;SDS011;11002;48.256;10.084;2022-12-18T08:47:21;3.83;;;3.20;;
21681;SDS011;11002;48.256;10.084;2022-12-18T08:49:48;4.22;;;3.47;;
21681;SDS011;11002;48.256;10.084;2022-12-18T08:52:16;3.90;;;3.47;;
21681;SDS011;11002;48.256;10.084;2022-12-18T08:54:43;3.50;;;3.00;;
21681;SDS011;11002;48.256;10.084;2022-12-18T08:57:11;4.00;;;3.60;;
21681;SDS011;11002;48.256;10.084;2022-12-18T08:59:38;4.68;;;3.30;;
21681;SDS011;11002;48.256;10.084;2022-12-18T09:02:05;3.47;;;3.17;;
21681;SDS011;11002;48.256;10.084;2022-12-18T09:04:36;3.80;;;3.50;;
21681;SDS011;11002;48.256;10.084;2022-12-18T09:07:05;3.65;;;3.28;;
21681;SDS011;11002;48.256;10.084;2022-12-18T09:09:32;3.95;;;3.40;;
21681;SDS011;11002;48.256;10.084;2022-12-18T09:11:59;3.90;;;3.38;;
21681;SDS011;11002;48.256;10.084;2022-12-18T09:14:27;3.55;;;3.25;;
21681;SDS011;11002;48.256;10.084;2022-12-18T09:16:54;3.50;;;3.15;;
21681;SDS011;11002;48.256;10.084;2022-12-18T09:19:22;3.60;;;3.30;;
21681;SDS011;11002;48.256;10.084;2022-12-18T09:21:51;3.80;;;3.20;;
21681;SDS011;11002;48.256;10.084;2022-12-18T09:24:18;4.80;;;3.80;;
21681;SDS011;11002;48.256;10.084;2022-12-18T09:26:46;3.50;;;3.20;;
21681;SDS011;11002;48.256;10.084;2022-12-18T09:29:13;4.28;;;3.72;;
21681;SDS011;11002;48.256;10.084;2022-12-18T09:31:40;3.65;;;3.20;;
21681;SDS011;11002;48.256;10.084;2022-12-18T09:34:09;4.00;;;3.50;;
21681;SDS011;11002;48.256;10.084;2022-12-18T09:36:39;3.65;;;3.28;;
21681;SDS011;11002;48.256;10.084;2022-12-18T09:39:08;3.88;;;3.30;;
21681;SDS011;11002;48.256;10.084;2022-12-18T09:41:40;3.95;;;3.55;;
21681;SDS011;11002;48.256;10.084;2022-12-18T09:46:45;3.97;;;3.45;;
21681;SDS011;11002;48.256;10.084;2022-12-18T09:49:16;4.38;;;3.78;;
21681;SDS011;11002;48.256;10.084;2022-12-18T09:51:50;4.10;;;3.47;;
21681;SDS011;11002;48.256;10.084;2022-12-18T09:54:26;4.40;;;3.55;;
21681;SDS011;11002;48.256;10.084;2022-12-18T09:56:59;3.65;;;3.25;;
21681;SDS011;11002;48.256;10.084;2022-12-18T09:59:27;6.82;;;3.40;;
21681;SDS011;11002;48.256;10.084;2022-12-18T10:02:04;3.63;;;3.22;;
21681;SDS011;11002;48.256;10.084;2022-12-18T10:04:43;3.90;;;3.53;;
21681;SDS011;11002;48.256;10.084;2022-12-18T10:07:13;3.47;;;3.17;;
21681;SDS011;11002;48.256;10.084;2022-12-18T10:12:20;3.80;;;3.40;;
21681;SDS011;11002;48.256;10.084;2022-12-18T10:14:53;3.70;;;3.35;;
21681;SDS011;11002;48.256;10.084;2022-12-18T10:17:31;4.70;;;3.50;;
21681;SDS011;11002;48.256;10.084;2022-12-18T10:20:03;3.47;;;3.17;;
21681;SDS011;11002;48.256;10.084;2022-12-18T10:22:53;6.82;;;3.10;;
21681;SDS011;11002;48.256;10.084;2022-12-18T10:25:31;3.35;;;3.05;;
21681;SDS011;11002;48.256;10.084;2022-12-18T10:28:07;4.57;;;3.30;;
21681;SDS011;11002;48.256;10.084;2022-12-18T10:30:38;12.75;;;7.05;;
21681;SDS011;11002;48.256;10.084;2022-12-18T10:33:08;12.48;;;9.48;;
21681;SDS011;11002;48.256;10.084;2022-12-18T10:35:38;15.15;;;10.00;;
21681;SDS011;11002;48.256;10.084;2022-12-18T10:38:20;12.23;;;9.38;;
21681;SDS011;11002;48.256;10.084;2022-12-18T10:40:53;14.27;;;10.50;;
21681;SDS011;11002;48.256;10.084;2022-12-18T10:43:23;16.88;;;9.48;;
21681;SDS011;11002;48.256;10.084;2022-12-18T10:46:00;14.18;;;9.13;;
21681;SDS011;11002;48.256;10.084;2022-12-18T10:48:52;17.92;;;10.63;;
21681;SDS011;11002;48.256;10.084;2022-12-18T10:51:22;26.13;;;11.23;;
21681;SDS011;11002;48.256;10.084;2022-12-18T10:53:52;30.83;;;11.80;;
21681;SDS011;11002;48.256;10.084;2022-12-18T10:56:24;20.77;;;10.75;;
21681;SDS011;11002;48.256;10.084;2022-12-18T10:58:57;25.30;;;11.00;;
21681;SDS011;11002;48.256;10.084;2022-12-18T11:01:26;32.85;;;11.10;;
21681;SDS011;11002;48.256;10.084;2022-12-18T11:04:01;18.60;;;10.50;;
21681;SDS011;11002;48.256;10.084;2022-12-18T11:06:35;36.80;;;11.02;;
21681;SDS011;11002;48.256;10.084;2022-12-18T11:09:21;156.00;;;17.27;;
21681;SDS011;11002;48.256;10.084;2022-12-18T11:11:51;147.00;;;16.15;;
21681;SDS011;11002;48.256;10.084;2022-12-18T11:14:21;167.05;;;16.35;;
21681;SDS011;11002;48.256;10.084;2022-12-18T11:16:50;139.90;;;15.80;;
21681;SDS011;11002;48.256;10.084;2022-12-18T11:19:21;128.70;;;12.90;;
21681;SDS011;11002;48.256;10.084;2022-12-18T11:21:54;118.32;;;13.90;;
21681;SDS011;11002;48.256;10.084;2022-12-18T11:24:24;127.00;;;13.90;;
21681;SDS011;11002;48.256;10.084;2022-12-18T11:26:57;72.32;;;10.95;;
21681;SDS011;11002;48.256;10.084;2022-12-18T11:29:28;62.30;;;10.52;;
21681;SDS011;11002;48.256;10.084;2022-12-18T11:35:07;52.75;;;10.85;;
21681;SDS011;11002;48.256;10.084;2022-12-18T11:37:43;103.25;;;11.40;;
21681;SDS011;11002;48.256;10.084;2022-12-18T11:40:15;46.47;;;9.13;;
21681;SDS011;11002;48.256;10.084;2022-12-18T11:42:49;50.47;;;8.55;;
21681;SDS011;11002;48.256;10.084;2022-12-18T11:45:25;51.53;;;7.85;;
21681;SDS011;11002;48.256;10.084;2022-12-18T11:48:01;58.40;;;8.63;;
21681;SDS011;11002;48.256;10.084;2022-12-18T11:50:32;28.60;;;8.07;;
21681;SDS011;11002;48.256;10.084;2022-12-18T11:53:09;43.55;;;11.77;;
21681;SDS011;11002;48.256;10.084;2022-12-18T11:55:39;47.55;;;8.63;;
21681;SDS011;11002;48.256;10.084;2022-12-18T11:58:17;42.97;;;6.93;;
21681;SDS011;11002;48.256;10.084;2022-12-18T12:00:55;33.58;;;7.28;;
21681;SDS011;11002;48.256;10.084;2022-12-18T12:03:36;31.80;;;6.75;;
21681;SDS011;11002;48.256;10.084;2022-12-18T12:06:13;27.98;;;7.05;;
21681;SDS011;11002;48.256;10.084;2022-12-18T12:08:49;34.67;;;6.78;;
21681;SDS011;11002;48.256;10.084;2022-12-18T12:11:27;25.95;;;6.07;;
21681;SDS011;11002;48.256;10.084;2022-12-18T12:14:09;27.70;;;6.47;;
21681;SDS011;11002;48.256;10.084;2022-12-18T12:16:47;23.02;;;6.03;;
21681;SDS011;11002;48.256;10.084;2022-12-18T12:19:28;25.15;;;5.65;;
21681;SDS011;11002;48.256;10.084;2022-12-18T12:22:07;20.23;;;6.15;;
21681;SDS011;11002;48.256;10.084;2022-12-18T12:24:45;32.92;;;7.65;;
21681;SDS011;11002;48.256;10.084;2022-12-18T12:27:24;29.27;;;6.07;;
21681;SDS011;11002;48.256;10.084;2022-12-18T12:32:34;18.25;;;5.43;;
21681;SDS011;11002;48.256;10.084;2022-12-18T12:35:16;26.65;;;5.47;;
21681;SDS011;11002;48.256;10.084;2022-12-18T12:37:57;15.93;;;6.13;;
21681;SDS011;11002;48.256;10.084;2022-12-18T12:40:32;27.65;;;5.85;;
21681;SDS011;11002;48.256;10.084;2022-12-18T12:43:02;19.08;;;5.57;;
21681;SDS011;11002;48.256;10.084;2022-12-18T12:45:42;19.98;;;5.97;;
21681;SDS011;11002;48.256;10.084;2022-12-18T12:48:16;24.73;;;6.18;;
21681;SDS011;11002;48.256;10.084;2022-12-18T12:50:47;22.45;;;5.68;;
21681;SDS011;11002;48.256;10.084;2022-12-18T12:53:19;17.13;;;5.10;;
21681;SDS011;11002;48.256;10.084;2022-12-18T12:55:51;19.65;;;5.30;;
21681;SDS011;11002;48.256;10.084;2022-12-18T12:58:23;21.65;;;5.00;;
21681;SDS011;11002;48.256;10.084;2022-12-18T13:01:01;60.60;;;19.38;;
21681;SDS011;11002;48.256;10.084;2022-12-18T13:03:41;25.85;;;7.03;;
21681;SDS011;11002;48.256;10.084;2022-12-18T13:06:14;42.33;;;9.02;;
21681;SDS011;11002;48.256;10.084;2022-12-18T13:08:53;32.80;;;7.60;;
21681;SDS011;11002;48.256;10.084;2022-12-18T13:11:35;38.38;;;7.55;;
21681;SDS011;11002;48.256;10.084;2022-12-18T13:14:26;26.50;;;7.30;;
21681;SDS011;11002;48.256;10.084;2022-12-18T13:17:16;24.42;;;6.28;;
21681;SDS011;11002;48.256;10.084;2022-12-18T13:20:08;14.98;;;6.43;;
21681;SDS011;11002;48.256;10.084;2022-12-18T13:22:38;17.45;;;6.20;;
21681;SDS011;11002;48.256;10.084;2022-12-18T13:25:27;18.00;;;6.30;;
21681;SDS011;11002;48.256;10.084;2022-12-18T13:27:59;17.52;;;6.00;;
21681;SDS011;11002;48.256;10.084;2022-12-18T13:30:48;23.40;;;6.30;;
21681;SDS011;11002;48.256;10.084;2022-12-18T13:33:34;19.58;;;5.80;;
21681;SDS011;11002;48.256;10.084;2022-12-18T13:36:15;16.83;;;5.05;;
21681;SDS011;11002;48.256;10.084;2022-12-18T13:45:41;20.63;;;5.75;;
21681;SDS011;11002;48.256;10.084;2022-12-18T13:48:18;13.10;;;5.15;;
21681;SDS011;11002;48.256;10.084;2022-12-18T13:51:00;13.50;;;4.97;;
21681;SDS011;11002;48.256;10.084;2022-12-18T13:53:33;10.73;;;4.83;;
21681;SDS011;11002;48.256;10.084;2022-12-18T13:56:03;10.30;;;4.40;;
21681;SDS011;11002;48.256;10.084;2022-12-18T13:58:31;8.77;;;4.10;;
21681;SDS011;11002;48.256;10.084;2022-12-18T14:00:59;9.52;;;4.22;;
21681;SDS011;11002;48.256;10.084;2022-12-18T14:03:29;10.68;;;5.03;;
21681;SDS011;11002;48.256;10.084;2022-12-18T14:06:03;11.32;;;4.13;;
21681;SDS011;11002;48.256;10.084;2022-12-18T14:08:37;12.00;;;4.18;;
21681;SDS011;11002;48.256;10.084;2022-12-18T14:11:06;8.27;;;4.25;;
21681;SDS011;11002;48.256;10.084;2022-12-18T14:13:44;10.45;;;4.25;;
21681;SDS011;11002;48.256;10.084;2022-12-18T14:16:13;5.63;;;3.78;;
21681;SDS011;11002;48.256;10.084;2022-12-18T14:18:43;9.57;;;3.88;;
21681;SDS011;11002;48.256;10.084;2022-12-18T14:21:21;7.07;;;4.50;;
21681;SDS011;11002;48.256;10.084;2022-12-18T14:24:02;7.97;;;4.60;;
21681;SDS011;11002;48.256;10.084;2022-12-18T14:26:32;10.57;;;4.25;;
21681;SDS011;11002;48.256;10.084;2022-12-18T14:29:00;7.07;;;3.90;;
21681;SDS011;11002;48.256;10.084;2022-12-18T14:31:43;5.30;;;3.90;;
21681;SDS011;11002;48.256;10.084;2022-12-18T14:34:14;7.28;;;4.00;;
21681;SDS011;11002;48.256;10.084;2022-12-18T14:36:44;6.45;;;4.13;;
21681;SDS011;11002;48.256;10.084;2022-12-18T14:39:19;6.82;;;4.00;;
21681;SDS011;11002;48.256;10.084;2022-12-18T14:41:48;7.68;;;3.63;;
21681;SDS011;11002;48.256;10.084;2022-12-18T14:44:16;6.68;;;3.92;;
21681;SDS011;11002;48.256;10.084;2022-12-18T14:46:43;6.72;;;3.92;;
21681;SDS011;11002;48.256;10.084;2022-12-18T14:49:18;6.65;;;3.42;;
21681;SDS011;11002;48.256;10.084;2022-12-18T14:51:51;6.93;;;3.90;;
21681;SDS011;11002;48.256;10.084;2022-12-18T14:54:20;7.45;;;3.95;;
21681;SDS011;11002;48.256;10.084;2022-12-18T14:56:49;6.15;;;3.20;;
21681;SDS011;11002;48.256;10.084;2022-12-18T14:59:22;6.53;;;3.92;;
21681;SDS011;11002;48.256;10.084;2022-12-18T15:01:55;5.55;;;3.63;;
21681;SDS011;11002;48.256;10.084;2022-12-18T15:04:31;4.63;;;3.22;;
21681;SDS011;11002;48.256;10.084;2022-12-18T15:07:07;7.70;;;3.83;;
21681;SDS011;11002;48.256;10.084;2022-12-18T15:09:38;6.70;;;3.90;;
21681;SDS011;11002;48.256;10.084;2022-12-18T15:12:15;4.72;;;3.55;;